sensor_id;sensor_type;location;lat;lon;timestamp;P1;durP1;ratioP1;P2;durP2;ratioP2
36839;SDS011;24406;51.640;9.566;2022-10-16T00:02:51;7.40;;;3.97;;
36839;SDS011;24406;51.640;9.566;2022-10-16T00:07:53;4.28;;;3.85;;
36839;SDS011;24406;51.640;9.566;2022-10-16T00:12:55;8.75;;;6.43;;
36839;SDS011;24406;51.640;9.566;2022-10-16T00:17:56;8.27;;;5.65;;
36839;SDS011;24406;51.640;9.566;2022-10-16T00:22:59;8.73;;;3.92;;
36839;SDS011;24406;51.640;9.566;2022-10-16T00:28:01;5.45;;;3.65;;
36839;SDS011;24406;51.640;9.566;2022-10-16T00:33:02;8.45;;;4.03;;
36839;SDS011;24406;51.640;9.566;2022-10-16T00:38:05;6.43;;;4.97;;
36839;SDS011;24406;51.640;9.566;2022-10-16T00:43:09;13.73;;;4.93;;
36839;SDS011;24406;51.640;9.566;2022-10-16T00:48:21;4.88;;;3.97;;
36839;SDS011;24406;51.640;9.566;2022-10-16T00:53:24;11.43;;;8.50;;
36839;SDS011;24406;51.640;9.566;2022-10-16T00:58:26;5.60;;;4.60;;
36839;SDS011;24406;51.640;9.566;2022-10-16T01:03:28;9.90;;;6.75;;
36839;SDS011;24406;51.640;9.566;2022-10-16T01:08:34;6.63;;;5.38;;
36839;SDS011;24406;51.640;9.566;2022-10-16T01:13:40;7.50;;;4.05;;
36839;SDS011;24406;51.640;9.566;2022-10-16T01:18:44;7.18;;;5.40;;
36839;SDS011;24406;51.640;9.566;2022-10-16T01:23:50;6.38;;;5.22;;
36839;SDS011;24406;51.640;9.566;2022-10-16T01:28:59;9.77;;;5.28;;
36839;SDS011;24406;51.640;9.566;2022-10-16T01:34:03;7.95;;;5.43;;
36839;SDS011;24406;51.640;9.566;2022-10-16T01:39:08;5.25;;;4.10;;
36839;SDS011;24406;51.640;9.566;2022-10-16T01:44:13;5.85;;;3.65;;
36839;SDS011;24406;51.640;9.566;2022-10-16T01:49:17;3.88;;;3.58;;
36839;SDS011;24406;51.640;9.566;2022-10-16T01:54:19;12.32;;;4.25;;
36839;SDS011;24406;51.640;9.566;2022-10-16T01:59:23;8.70;;;4.00;;
36839;SDS011;24406;51.640;9.566;2022-10-16T02:04:28;4.20;;;3.90;;
36839;SDS011;24406;51.640;9.566;2022-10-16T02:09:32;5.22;;;3.97;;
36839;SDS011;24406;51.640;9.566;2022-10-16T02:14:35;6.97;;;3.58;;
36839;SDS011;24406;51.640;9.566;2022-10-16T02:19:39;6.20;;;3.83;;
36839;SDS011;24406;51.640;9.566;2022-10-16T02:24:43;5.80;;;3.63;;
36839;SDS011;24406;51.640;9.566;2022-10-16T02:29:52;3.75;;;3.45;;
36839;SDS011;24406;51.640;9.566;2022-10-16T02:34:58;8.10;;;3.78;;
36839;SDS011;24406;51.640;9.566;2022-10-16T02:40:01;9.25;;;4.18;;
36839;SDS011;24406;51.640;9.566;2022-10-16T02:45:06;5.50;;;4.22;;
36839;SDS011;24406;51.640;9.566;2022-10-16T02:50:10;9.52;;;4.70;;
36839;SDS011;24406;51.640;9.566;2022-10-16T02:55:11;6.75;;;4.20;;
36839;SDS011;24406;51.640;9.566;2022-10-16T03:00:16;10.32;;;4.38;;
36839;SDS011;24406;51.640;9.566;2022-10-16T03:05:18;6.53;;;4.57;;
36839;SDS011;24406;51.640;9.566;2022-10-16T03:10:19;4.35;;;3.67;;
36839;SDS011;24406;51.640;9.566;2022-10-16T03:15:22;4.50;;;4.20;;
36839;SDS011;24406;51.640;9.566;2022-10-16T03:20:24;6.43;;;4.20;;
36839;SDS011;24406;51.640;9.566;2022-10-16T03:25:25;15.60;;;4.18;;
36839;SDS011;24406;51.640;9.566;2022-10-16T03:30:28;6.60;;;4.40;;
36839;SDS011;24406;51.640;9.566;2022-10-16T03:35:30;5.30;;;4.05;;
36839;SDS011;24406;51.640;9.566;2022-10-16T03:40:31;4.43;;;3.88;;
36839;SDS011;24406;51.640;9.566;2022-10-16T03:45:34;8.57;;;5.07;;
36839;SDS011;24406;51.640;9.566;2022-10-16T03:50:35;8.38;;;5.15;;
36839;SDS011;24406;51.640;9.566;2022-10-16T03:55:37;9.60;;;5.20;;
36839;SDS011;24406;51.640;9.566;2022-10-16T04:00:41;5.88;;;4.95;;
36839;SDS011;24406;51.640;9.566;2022-10-16T04:05:42;5.18;;;4.78;;
36839;SDS011;24406;51.640;9.566;2022-10-16T04:10:44;7.07;;;4.50;;
36839;SDS011;24406;51.640;9.566;2022-10-16T04:15:47;8.38;;;3.90;;
36839;SDS011;24406;51.640;9.566;2022-10-16T04:20:48;5.55;;;4.13;;
36839;SDS011;24406;51.640;9.566;2022-10-16T04:25:50;9.57;;;5.10;;
36839;SDS011;24406;51.640;9.566;2022-10-16T04:30:53;5.82;;;4.20;;
36839;SDS011;24406;51.640;9.566;2022-10-16T04:35:57;6.07;;;4.70;;
36839;SDS011;24406;51.640;9.566;2022-10-16T04:40:59;7.03;;;4.90;;
36839;SDS011;24406;51.640;9.566;2022-10-16T04:46:02;10.15;;;5.38;;
36839;SDS011;24406;51.640;9.566;2022-10-16T04:51:04;14.07;;;4.50;;
36839;SDS011;24406;51.640;9.566;2022-10-16T04:56:06;4.45;;;4.15;;
36839;SDS011;24406;51.640;9.566;2022-10-16T05:01:09;4.82;;;4.00;;
36839;SDS011;24406;51.640;9.566;2022-10-16T05:06:10;6.95;;;4.03;;
36839;SDS011;24406;51.640;9.566;2022-10-16T05:11:12;5.70;;;3.95;;
36839;SDS011;24406;51.640;9.566;2022-10-16T05:16:15;12.05;;;4.60;;
36839;SDS011;24406;51.640;9.566;2022-10-16T05:21:17;6.03;;;4.10;;
36839;SDS011;24406;51.640;9.566;2022-10-16T05:26:19;4.65;;;4.00;;
36839;SDS011;24406;51.640;9.566;2022-10-16T05:31:22;4.20;;;3.72;;
36839;SDS011;24406;51.640;9.566;2022-10-16T05:36:23;4.50;;;4.03;;
36839;SDS011;24406;51.640;9.566;2022-10-16T05:41:25;5.20;;;3.80;;
36839;SDS011;24406;51.640;9.566;2022-10-16T05:46:28;7.20;;;3.67;;
36839;SDS011;24406;51.640;9.566;2022-10-16T05:51:29;5.10;;;3.40;;
36839;SDS011;24406;51.640;9.566;2022-10-16T05:56:31;5.10;;;4.60;;
36839;SDS011;24406;51.640;9.566;2022-10-16T06:01:33;5.47;;;4.88;;
36839;SDS011;24406;51.640;9.566;2022-10-16T06:06:35;8.18;;;5.60;;
36839;SDS011;24406;51.640;9.566;2022-10-16T06:11:37;5.43;;;4.93;;
36839;SDS011;24406;51.640;9.566;2022-10-16T06:16:40;10.20;;;5.13;;
36839;SDS011;24406;51.640;9.566;2022-10-16T06:21:41;6.60;;;6.00;;
36839;SDS011;24406;51.640;9.566;2022-10-16T06:26:43;4.35;;;3.95;;
36839;SDS011;24406;51.640;9.566;2022-10-16T06:31:46;5.68;;;5.22;;
36839;SDS011;24406;51.640;9.566;2022-10-16T06:36:47;11.98;;;4.50;;
36839;SDS011;24406;51.640;9.566;2022-10-16T06:41:49;4.35;;;3.90;;
36839;SDS011;24406;51.640;9.566;2022-10-16T06:46:51;4.97;;;4.47;;
36839;SDS011;24406;51.640;9.566;2022-10-16T06:51:53;10.30;;;4.75;;
36839;SDS011;24406;51.640;9.566;2022-10-16T06:56:55;5.68;;;5.18;;
36839;SDS011;24406;51.640;9.566;2022-10-16T07:01:58;8.32;;;5.95;;
36839;SDS011;24406;51.640;9.566;2022-10-16T07:07:00;6.82;;;6.15;;
36839;SDS011;24406;51.640;9.566;2022-10-16T07:12:02;6.25;;;5.40;;
36839;SDS011;24406;51.640;9.566;2022-10-16T07:17:05;7.28;;;5.25;;
36839;SDS011;24406;51.640;9.566;2022-10-16T07:22:06;5.45;;;4.82;;
36839;SDS011;24406;51.640;9.566;2022-10-16T07:27:08;4.45;;;3.58;;
36839;SDS011;24406;51.640;9.566;2022-10-16T07:32:10;7.40;;;3.67;;
36839;SDS011;24406;51.640;9.566;2022-10-16T07:37:12;4.70;;;3.90;;
36839;SDS011;24406;51.640;9.566;2022-10-16T07:42:13;9.88;;;4.07;;
36839;SDS011;24406;51.640;9.566;2022-10-16T07:47:16;5.28;;;2.30;;
36839;SDS011;24406;51.640;9.566;2022-10-16T07:52:18;2.60;;;2.40;;
36839;SDS011;24406;51.640;9.566;2022-10-16T07:57:19;2.60;;;2.40;;
36839;SDS011;24406;51.640;9.566;2022-10-16T08:02:22;2.28;;;2.10;;
36839;SDS011;24406;51.640;9.566;2022-10-16T08:07:24;2.90;;;2.55;;
36839;SDS011;24406;51.640;9.566;2022-10-16T08:12:25;7.00;;;4.15;;
36839;SDS011;24406;51.640;9.566;2022-10-16T08:17:29;4.95;;;3.75;;
36839;SDS011;24406;51.640;9.566;2022-10-16T08:22:30;4.28;;;3.42;;
36839;SDS011;24406;51.640;9.566;2022-10-16T08:27:32;4.28;;;2.53;;
36839;SDS011;24406;51.640;9.566;2022-10-16T08:32:35;4.57;;;2.35;;
36839;SDS011;24406;51.640;9.566;2022-10-16T08:37:36;2.45;;;1.30;;
36839;SDS011;24406;51.640;9.566;2022-10-16T08:42:46;3.53;;;1.60;;
36839;SDS011;24406;51.640;9.566;2022-10-16T08:47:56;2.28;;;2.03;;
36839;SDS011;24406;51.640;9.566;2022-10-16T08:53:05;2.13;;;1.98;;
36839;SDS011;24406;51.640;9.566;2022-10-16T08:58:13;2.97;;;1.55;;
36839;SDS011;24406;51.640;9.566;2022-10-16T09:03:27;3.30;;;1.20;;
36839;SDS011;24406;51.640;9.566;2022-10-16T09:08:37;5.45;;;1.08;;
36839;SDS011;24406;51.640;9.566;2022-10-16T09:13:46;1.85;;;0.80;;
36839;SDS011;24406;51.640;9.566;2022-10-16T09:18:54;2.60;;;1.20;;
36839;SDS011;24406;51.640;9.566;2022-10-16T09:23:58;4.43;;;1.40;;
36839;SDS011;24406;51.640;9.566;2022-10-16T09:29:01;2.10;;;0.85;;
36839;SDS011;24406;51.640;9.566;2022-10-16T09:34:05;2.00;;;0.90;;
36839;SDS011;24406;51.640;9.566;2022-10-16T09:39:09;4.57;;;1.63;;
36839;SDS011;24406;51.640;9.566;2022-10-16T09:44:17;3.92;;;1.00;;
36839;SDS011;24406;51.640;9.566;2022-10-16T09:49:23;2.00;;;0.80;;
36839;SDS011;24406;51.640;9.566;2022-10-16T09:54:26;0.80;;;0.80;;
36839;SDS011;24406;51.640;9.566;2022-10-16T09:59:27;0.98;;;0.82;;
36839;SDS011;24406;51.640;9.566;2022-10-16T10:04:39;0.88;;;0.80;;
36839;SDS011;24406;51.640;9.566;2022-10-16T10:09:42;0.70;;;0.63;;
36839;SDS011;24406;51.640;9.566;2022-10-16T10:14:46;2.20;;;0.73;;
36839;SDS011;24406;51.640;9.566;2022-10-16T10:19:51;3.00;;;0.88;;
36839;SDS011;24406;51.640;9.566;2022-10-16T10:24:54;3.72;;;0.93;;
36839;SDS011;24406;51.640;9.566;2022-10-16T10:29:58;2.05;;;0.80;;
36839;SDS011;24406;51.640;9.566;2022-10-16T10:35:07;1.10;;;0.98;;
36839;SDS011;24406;51.640;9.566;2022-10-16T10:40:16;3.75;;;1.13;;
36839;SDS011;24406;51.640;9.566;2022-10-16T10:45:28;4.95;;;0.90;;
36839;SDS011;24406;51.640;9.566;2022-10-16T10:50:41;1.17;;;1.08;;
36839;SDS011;24406;51.640;9.566;2022-10-16T10:55:45;1.02;;;0.80;;
36839;SDS011;24406;51.640;9.566;2022-10-16T11:00:50;1.30;;;0.82;;
36839;SDS011;24406;51.640;9.566;2022-10-16T11:05:57;3.83;;;1.00;;
36839;SDS011;24406;51.640;9.566;2022-10-16T11:11:02;1.10;;;0.95;;
36839;SDS011;24406;51.640;9.566;2022-10-16T11:16:07;2.78;;;0.80;;
36839;SDS011;24406;51.640;9.566;2022-10-16T11:21:16;1.38;;;0.80;;
36839;SDS011;24406;51.640;9.566;2022-10-16T11:26:19;0.73;;;0.73;;
36839;SDS011;24406;51.640;9.566;2022-10-16T11:31:24;2.50;;;0.82;;
36839;SDS011;24406;51.640;9.566;2022-10-16T11:36:33;0.75;;;0.75;;
36839;SDS011;24406;51.640;9.566;2022-10-16T11:41:39;2.65;;;0.82;;
36839;SDS011;24406;51.640;9.566;2022-10-16T11:46:45;1.23;;;0.80;;
36839;SDS011;24406;51.640;9.566;2022-10-16T11:51:52;3.58;;;1.00;;
36839;SDS011;24406;51.640;9.566;2022-10-16T11:56:57;1.70;;;0.97;;
36839;SDS011;24406;51.640;9.566;2022-10-16T12:02:08;1.92;;;1.00;;
36839;SDS011;24406;51.640;9.566;2022-10-16T12:07:34;2.25;;;0.98;;
36839;SDS011;24406;51.640;9.566;2022-10-16T12:12:37;10.60;;;1.50;;
36839;SDS011;24406;51.640;9.566;2022-10-16T12:17:40;3.85;;;1.35;;
36839;SDS011;24406;51.640;9.566;2022-10-16T12:22:47;4.30;;;1.30;;
36839;SDS011;24406;51.640;9.566;2022-10-16T12:27:56;1.85;;;1.40;;
36839;SDS011;24406;51.640;9.566;2022-10-16T12:32:59;4.00;;;1.33;;
36839;SDS011;24406;51.640;9.566;2022-10-16T12:38:14;1.63;;;0.90;;
36839;SDS011;24406;51.640;9.566;2022-10-16T12:43:25;1.98;;;1.05;;
36839;SDS011;24406;51.640;9.566;2022-10-16T12:48:45;1.63;;;0.75;;
36839;SDS011;24406;51.640;9.566;2022-10-16T12:53:58;1.63;;;0.75;;
36839;SDS011;24406;51.640;9.566;2022-10-16T12:59:03;2.47;;;1.15;;
36839;SDS011;24406;51.640;9.566;2022-10-16T13:04:21;0.90;;;0.80;;
36839;SDS011;24406;51.640;9.566;2022-10-16T13:09:32;1.88;;;0.80;;
36839;SDS011;24406;51.640;9.566;2022-10-16T13:14:44;1.45;;;0.82;;
36839;SDS011;24406;51.640;9.566;2022-10-16T13:19:56;0.68;;;0.68;;
36839;SDS011;24406;51.640;9.566;2022-10-16T13:25:08;3.42;;;0.60;;
36839;SDS011;24406;51.640;9.566;2022-10-16T13:30:19;2.20;;;0.85;;
36839;SDS011;24406;51.640;9.566;2022-10-16T13:35:23;0.68;;;0.57;;
36839;SDS011;24406;51.640;9.566;2022-10-16T13:40:26;2.85;;;0.70;;
36839;SDS011;24406;51.640;9.566;2022-10-16T13:45:28;1.00;;;0.70;;
36839;SDS011;24406;51.640;9.566;2022-10-16T13:50:29;0.75;;;0.50;;
36839;SDS011;24406;51.640;9.566;2022-10-16T13:55:32;1.80;;;0.70;;
36839;SDS011;24406;51.640;9.566;2022-10-16T14:00:34;1.58;;;0.65;;
36839;SDS011;24406;51.640;9.566;2022-10-16T14:05:36;1.15;;;0.55;;
36839;SDS011;24406;51.640;9.566;2022-10-16T14:10:39;0.65;;;0.55;;
36839;SDS011;24406;51.640;9.566;2022-10-16T14:15:45;1.13;;;0.85;;
36839;SDS011;24406;51.640;9.566;2022-10-16T14:20:48;1.23;;;0.57;;
36839;SDS011;24406;51.640;9.566;2022-10-16T14:25:51;2.45;;;0.65;;
36839;SDS011;24406;51.640;9.566;2022-10-16T14:30:53;0.75;;;0.60;;
36839;SDS011;24406;51.640;9.566;2022-10-16T14:35:59;0.50;;;0.50;;
36839;SDS011;24406;51.640;9.566;2022-10-16T14:41:03;1.27;;;0.60;;
36839;SDS011;24406;51.640;9.566;2022-10-16T14:46:06;1.95;;;0.50;;
36839;SDS011;24406;51.640;9.566;2022-10-16T14:51:13;0.60;;;0.50;;
36839;SDS011;24406;51.640;9.566;2022-10-16T14:56:17;0.63;;;0.60;;
36839;SDS011;24406;51.640;9.566;2022-10-16T15:01:19;1.60;;;0.50;;
36839;SDS011;24406;51.640;9.566;2022-10-16T15:06:21;2.40;;;0.50;;
36839;SDS011;24406;51.640;9.566;2022-10-16T15:11:24;0.85;;;0.40;;
36839;SDS011;24406;51.640;9.566;2022-10-16T15:16:25;2.13;;;0.73;;
36839;SDS011;24406;51.640;9.566;2022-10-16T15:21:28;1.38;;;0.52;;
36839;SDS011;24406;51.640;9.566;2022-10-16T15:26:31;3.70;;;0.63;;
36839;SDS011;24406;51.640;9.566;2022-10-16T15:31:33;2.63;;;0.60;;
36839;SDS011;24406;51.640;9.566;2022-10-16T15:36:35;2.85;;;0.60;;
36839;SDS011;24406;51.640;9.566;2022-10-16T15:41:39;2.40;;;0.82;;
36839;SDS011;24406;51.640;9.566;2022-10-16T15:46:41;3.92;;;0.85;;
36839;SDS011;24406;51.640;9.566;2022-10-16T15:51:42;1.77;;;0.73;;
36839;SDS011;24406;51.640;9.566;2022-10-16T15:56:45;7.05;;;1.35;;
36839;SDS011;24406;51.640;9.566;2022-10-16T16:01:47;6.25;;;2.90;;
36839;SDS011;24406;51.640;9.566;2022-10-16T16:06:48;4.28;;;1.50;;
36839;SDS011;24406;51.640;9.566;2022-10-16T16:11:51;4.13;;;1.50;;
36839;SDS011;24406;51.640;9.566;2022-10-16T16:16:53;2.67;;;0.75;;
36839;SDS011;24406;51.640;9.566;2022-10-16T16:21:55;7.47;;;1.23;;
36839;SDS011;24406;51.640;9.566;2022-10-16T16:26:58;2.78;;;0.90;;
36839;SDS011;24406;51.640;9.566;2022-10-16T16:31:59;11.77;;;3.55;;
36839;SDS011;24406;51.640;9.566;2022-10-16T16:37:01;5.57;;;1.30;;
36839;SDS011;24406;51.640;9.566;2022-10-16T16:42:04;4.88;;;1.13;;
36839;SDS011;24406;51.640;9.566;2022-10-16T16:47:07;3.80;;;1.30;;
36839;SDS011;24406;51.640;9.566;2022-10-16T16:52:08;0.95;;;0.50;;
36839;SDS011;24406;51.640;9.566;2022-10-16T16:57:11;4.32;;;1.60;;
36839;SDS011;24406;51.640;9.566;2022-10-16T17:02:13;5.13;;;3.38;;
36839;SDS011;24406;51.640;9.566;2022-10-16T17:07:15;2.88;;;2.50;;
36839;SDS011;24406;51.640;9.566;2022-10-16T17:12:17;5.40;;;2.10;;
36839;SDS011;24406;51.640;9.566;2022-10-16T17:17:19;4.22;;;2.28;;
36839;SDS011;24406;51.640;9.566;2022-10-16T17:22:20;9.40;;;2.22;;
36839;SDS011;24406;51.640;9.566;2022-10-16T17:27:23;4.25;;;1.80;;
36839;SDS011;24406;51.640;9.566;2022-10-16T17:32:25;6.53;;;1.60;;
36839;SDS011;24406;51.640;9.566;2022-10-16T17:37:26;4.78;;;2.28;;
36839;SDS011;24406;51.640;9.566;2022-10-16T17:42:29;4.57;;;1.80;;
36839;SDS011;24406;51.640;9.566;2022-10-16T17:47:30;7.38;;;1.10;;
36839;SDS011;24406;51.640;9.566;2022-10-16T17:52:32;2.25;;;1.40;;
36839;SDS011;24406;51.640;9.566;2022-10-16T17:57:35;5.68;;;2.20;;
36839;SDS011;24406;51.640;9.566;2022-10-16T18:02:36;6.88;;;2.45;;
36839;SDS011;24406;51.640;9.566;2022-10-16T18:07:41;12.65;;;4.72;;
36839;SDS011;24406;51.640;9.566;2022-10-16T18:12:44;15.95;;;6.68;;
36839;SDS011;24406;51.640;9.566;2022-10-16T18:17:45;10.63;;;4.57;;
36839;SDS011;24406;51.640;9.566;2022-10-16T18:22:47;10.95;;;2.70;;
36839;SDS011;24406;51.640;9.566;2022-10-16T18:27:49;8.80;;;3.10;;
36839;SDS011;24406;51.640;9.566;2022-10-16T18:32:51;14.95;;;3.58;;
36839;SDS011;24406;51.640;9.566;2022-10-16T18:37:52;7.28;;;2.40;;
36839;SDS011;24406;51.640;9.566;2022-10-16T18:42:59;9.18;;;5.70;;
36839;SDS011;24406;51.640;9.566;2022-10-16T18:48:00;8.93;;;6.68;;
36839;SDS011;24406;51.640;9.566;2022-10-16T18:53:02;7.05;;;4.95;;
36839;SDS011;24406;51.640;9.566;2022-10-16T18:58:05;7.63;;;3.78;;
36839;SDS011;24406;51.640;9.566;2022-10-16T19:03:07;7.47;;;3.28;;
36839;SDS011;24406;51.640;9.566;2022-10-16T19:08:08;8.40;;;3.45;;
36839;SDS011;24406;51.640;9.566;2022-10-16T19:13:11;7.60;;;4.05;;
36839;SDS011;24406;51.640;9.566;2022-10-16T19:18:12;10.38;;;4.25;;
36839;SDS011;24406;51.640;9.566;2022-10-16T19:23:14;7.28;;;3.75;;
36839;SDS011;24406;51.640;9.566;2022-10-16T19:28:17;8.80;;;4.00;;
36839;SDS011;24406;51.640;9.566;2022-10-16T19:33:19;3.50;;;3.20;;
36839;SDS011;24406;51.640;9.566;2022-10-16T19:38:20;5.80;;;2.85;;
36839;SDS011;24406;51.640;9.566;2022-10-16T19:43:23;3.25;;;2.10;;
36839;SDS011;24406;51.640;9.566;2022-10-16T19:48:25;4.65;;;2.00;;
36839;SDS011;24406;51.640;9.566;2022-10-16T19:53:27;2.72;;;1.77;;
36839;SDS011;24406;51.640;9.566;2022-10-16T19:58:30;4.57;;;1.90;;
36839;SDS011;24406;51.640;9.566;2022-10-16T20:03:31;8.43;;;3.33;;
36839;SDS011;24406;51.640;9.566;2022-10-16T20:08:35;4.35;;;2.90;;
36839;SDS011;24406;51.640;9.566;2022-10-16T20:13:39;9.77;;;3.45;;
36839;SDS011;24406;51.640;9.566;2022-10-16T20:18:41;5.00;;;3.13;;
36839;SDS011;24406;51.640;9.566;2022-10-16T20:23:43;9.18;;;3.72;;
36839;SDS011;24406;51.640;9.566;2022-10-16T20:28:47;6.90;;;3.40;;
36839;SDS011;24406;51.640;9.566;2022-10-16T20:33:49;6.43;;;2.83;;
36839;SDS011;24406;51.640;9.566;2022-10-16T20:38:51;11.60;;;2.67;;
36839;SDS011;24406;51.640;9.566;2022-10-16T20:43:54;8.10;;;2.38;;
36839;SDS011;24406;51.640;9.566;2022-10-16T20:48:56;12.70;;;3.67;;
36839;SDS011;24406;51.640;9.566;2022-10-16T20:53:59;2.63;;;2.42;;
36839;SDS011;24406;51.640;9.566;2022-10-16T20:59:03;5.13;;;3.25;;
36839;SDS011;24406;51.640;9.566;2022-10-16T21:04:06;5.68;;;3.70;;
36839;SDS011;24406;51.640;9.566;2022-10-16T21:09:08;9.65;;;3.03;;
36839;SDS011;24406;51.640;9.566;2022-10-16T21:14:11;6.30;;;2.78;;
36839;SDS011;24406;51.640;9.566;2022-10-16T21:19:12;6.78;;;3.22;;
36839;SDS011;24406;51.640;9.566;2022-10-16T21:24:14;6.13;;;3.83;;
36839;SDS011;24406;51.640;9.566;2022-10-16T21:29:18;4.32;;;2.50;;
36839;SDS011;24406;51.640;9.566;2022-10-16T21:34:20;4.78;;;2.90;;
36839;SDS011;24406;51.640;9.566;2022-10-16T21:39:22;6.78;;;3.53;;
36839;SDS011;24406;51.640;9.566;2022-10-16T21:44:25;9.70;;;3.25;;
36839;SDS011;24406;51.640;9.566;2022-10-16T21:49:26;7.97;;;3.03;;
36839;SDS011;24406;51.640;9.566;2022-10-16T21:54:28;9.18;;;2.92;;
36839;SDS011;24406;51.640;9.566;2022-10-16T21:59:31;6.35;;;3.40;;
36839;SDS011;24406;51.640;9.566;2022-10-16T22:04:32;11.48;;;3.67;;
36839;SDS011;24406;51.640;9.566;2022-10-16T22:09:34;5.07;;;2.63;;
36839;SDS011;24406;51.640;9.566;2022-10-16T22:14:38;4.03;;;3.03;;
36839;SDS011;24406;51.640;9.566;2022-10-16T22:19:39;11.18;;;3.33;;
36839;SDS011;24406;51.640;9.566;2022-10-16T22:24:41;10.05;;;3.42;;
36839;SDS011;24406;51.640;9.566;2022-10-16T22:29:44;9.55;;;3.50;;
36839;SDS011;24406;51.640;9.566;2022-10-16T22:34:45;4.97;;;3.50;;
36839;SDS011;24406;51.640;9.566;2022-10-16T22:39:47;7.30;;;3.70;;
36839;SDS011;24406;51.640;9.566;2022-10-16T22:44:50;8.95;;;4.05;;
36839;SDS011;24406;51.640;9.566;2022-10-16T22:49:51;5.97;;;3.60;;
36839;SDS011;24406;51.640;9.566;2022-10-16T22:54:53;6.63;;;3.70;;
36839;SDS011;24406;51.640;9.566;2022-10-16T22:59:56;10.32;;;4.25;;
36839;SDS011;24406;51.640;9.566;2022-10-16T23:04:57;5.43;;;3.22;;
36839;SDS011;24406;51.640;9.566;2022-10-16T23:09:59;5.70;;;3.80;;
36839;SDS011;24406;51.640;9.566;2022-10-16T23:15:02;5.95;;;3.75;;
36839;SDS011;24406;51.640;9.566;2022-10-16T23:20:04;5.90;;;3.85;;
36839;SDS011;24406;51.640;9.566;2022-10-16T23:25:06;5.43;;;3.75;;
36839;SDS011;24406;51.640;9.566;2022-10-16T23:30:10;9.88;;;4.60;;
36839;SDS011;24406;51.640;9.566;2022-10-16T23:35:12;4.70;;;4.18;;
36839;SDS011;24406;51.640;9.566;2022-10-16T23:40:13;14.52;;;4.82;;
36839;SDS011;24406;51.640;9.566;2022-10-16T23:45:16;6.43;;;3.97;;
36839;SDS011;24406;51.640;9.566;2022-10-16T23:50:18;8.98;;;4.70;;
36839;SDS011;24406;51.640;9.566;2022-10-16T23:55:19;9.60;;;4.78;;
